• Join FlightAware (Why Join?)
  • Login
  • US Flag 
Gobble Gobble! 
11:26AM EST


 

Airport Tracker/Info


-or-


 

Live Flight TrackerFlight Track Log ✈ VIR19 ✈ 15-Mar-2014 ✈ EGLL / LHR - KSFO

Flight Track Log - Related Links

Times and Time Zones

All times are in EDT time to prevent confusion due to time zone crossing. See the VIR19 flight status page for this flight to view local times or setup timezone preferences in your user account.

Time Position Orientation Groundspeed Altitude Reporting Facility
EDT Latitude Longitude Course Direction KTS MPH feet Rate Location/Type
07:23AM 51.4649 -0.4700 270° West 168 193  Level FlightAware ADS-B
07:23AM 51.4648 -0.4788 270° West 168 193 100 1,200 Climbing FlightAware ADS-B (EGKB / BQH)
07:23AM 51.4648 -0.4874 271° West 167 192 300 3,000 Climbing FlightAware ADS-B
07:23AM 51.4648 -0.4899 270° West 166 191 400 2,100 Climbing FlightAware ADS-B (EGKB / BQH)
07:23AM 51.4650 -0.5060 271° West 169 194 800 1,860 Climbing FlightAware ADS-B
07:24AM 51.4649 -0.5098 270° West 168 193 900 2,400 Climbing FlightAware ADS-B (EGKB / BQH)
07:24AM 51.4648 -0.5248 268° West 171 197 1,400 2,220 Climbing FlightAware ADS-B
07:24AM 51.4647 -0.5299 269° West 172 198 1,500 960 Climbing FlightAware ADS-B
07:24AM 51.4646 -0.5325 269° West 173 199 1,500 1,500 Level FlightAware ADS-B (EHTW / ENS)
07:24AM 51.4645 -0.5443 269° West 181 208 1,800 1,560 Climbing FlightAware ADS-B
07:24AM 51.4644 -0.5524 269° West 186 214 1,900 1,260 Climbing FlightAware ADS-B
07:24AM 51.4642 -0.5654 270° West 202 232 2,100 1,200 Climbing FlightAware ADS-B
07:24AM 51.4643 -0.5671 269° West 202 232 2,100 960 Level FlightAware ADS-B
07:24AM 51.4642 -0.5746 269° West 205 236 2,200 2,100 Climbing FlightAware ADS-B (EGLF / FAB)
07:24AM 51.4641 -0.5838 269° West 210 242 2,600 2,400 Climbing FlightAware ADS-B
07:25AM 51.4640 -0.5901 269° West 209 241 2,600 1,500 Level FlightAware ADS-B
07:25AM 51.4639 -0.6010 269° West 211 243 2,800 1,080 Climbing FlightAware ADS-B (EGKB / BQH)
07:25AM 51.4636 -0.6154 268° West 219 252 2,900 420 Climbing FlightAware ADS-B
07:25AM 51.4635 -0.6186 267° West 224 258 2,900  Level FlightAware ADS-B
07:25AM 51.4632 -0.6237 264° West 227 261 2,900  Level FlightAware ADS-B
07:25AM 51.4622 -0.6339 260° West 237 273 2,900 720 Level FlightAware ADS-B
07:25AM 51.4627 -0.6305 258° West 240 276 3,000 1,800 Climbing FlightAware ADS-B
07:25AM 51.4592 -0.6513 253° West 246 283 3,200 1,860 Climbing FlightAware ADS-B
07:25AM 51.4566 -0.6653 253° West 247 284 3,500 1,800 Climbing FlightAware ADS-B
07:25AM 51.4553 -0.6741 257° West 247 284 3,600 1,500 Climbing FlightAware ADS-B
07:25AM 51.4547 -0.6797 262° West 249 287 3,700 3,000 Climbing FlightAware ADS-B
07:25AM 51.4545 -0.6834 262° West 249 287 3,800 1,980 Climbing FlightAware ADS-B
07:25AM 51.4543 -0.6851 265° West 249 287 3,800 1,200 Level FlightAware ADS-B
07:25AM 51.4542 -0.6906 268° West 252 290 3,900 1,500 Climbing FlightAware ADS-B
07:26AM 51.4541 -0.6927 268° West 252 290 3,900 1,980 Level FlightAware ADS-B
07:26AM 51.4544 -0.7172 272° West 260 299 4,400 1,980 Climbing FlightAware ADS-B
07:26AM 51.4544 -0.7211 271° West 259 298 4,400 2,400 Level FlightAware ADS-B
07:26AM 51.4547 -0.7483 271° West 265 305 5,000 2,400 Climbing FlightAware ADS-B
07:26AM 51.4547 -0.7503 270° West 264 304 5,000  Level FlightAware ADS-B
07:26AM 51.4547 -0.7523 270° West 265 305 5,000 2,400 Level FlightAware ADS-B (EGLF / FAB)
07:26AM 51.4546 -0.7740 270° West 271 312 5,600 2,700 Climbing FlightAware ADS-B
07:26AM 51.4544 -0.7921 269° West 273 314 5,900 2,580 Climbing FlightAware ADS-B (EGLF / FAB)
07:27AM 51.4541 -0.8125 269° West 278 320 6,300 1,980 Climbing FlightAware ADS-B
07:27AM 51.4540 -0.8147 269° West 279 321 6,300 1,980 Level FlightAware ADS-B
07:27AM 51.4537 -0.8312 268° West 280 322 6,600 2,700 Climbing FlightAware ADS-B (EGLF / FAB)
07:27AM 51.4535 -0.8395 270° West 282 325 6,800 2,220 Climbing FlightAware ADS-B (EGHI / SOU)
07:27AM 51.4534 -0.8481 268° West 283 326 6,900 1,980 Climbing FlightAware ADS-B
07:27AM 51.4533 -0.8501 268° West 284 327 7,000 3,960 Climbing FlightAware ADS-B
07:27AM 51.4534 -0.8458 268° West 283 326 7,100 3,000 Climbing FlightAware ADS-B
07:27AM 51.4530 -0.8626 270° West 283 326 7,300 2,640 Climbing FlightAware ADS-B (EGHH / BOH)
07:27AM 51.4529 -0.8710 270° West 283 326 7,500 3,420 Climbing FlightAware ADS-B (EGKK / LGW)
07:27AM 51.4527 -0.8794 268° West 283 326 7,700 3,000 Climbing FlightAware ADS-B
07:27AM 51.4526 -0.8815 268° West 284 327 7,700  Level FlightAware ADS-B
07:27AM 51.4526 -0.8837 270° West 283 326 7,700 2,520 Level FlightAware ADS-B (EGHI / SOU)
07:27AM 51.4521 -0.9132 269° West 288 331 8,300 2,520 Climbing FlightAware ADS-B
07:27AM 51.4521 -0.9132 269° West 289 333 8,300 1,980 Level FlightAware ADS-B
07:27AM 51.4520 -0.9176 269° West 287 330 8,400 3,000 Climbing FlightAware ADS-B (EGLF / FAB)
07:28AM 51.4517 -0.9451 269° West 287 330 9,000 2,760 Climbing FlightAware ADS-B
07:28AM 51.4517 -0.9452 270° West 289 333 9,000 1,500 Level FlightAware ADS-B
07:28AM 51.4516 -0.9496 269° West 288 331 9,100 1,980 Climbing FlightAware ADS-B (EHTW / ENS)
07:28AM 51.4513 -0.9776 270° West 292 336 9,500 1,800 Climbing FlightAware ADS-B (EGKK / LGW)
07:28AM 51.4513 -0.9797 269° West 292 336 9,500 2,520 Level FlightAware ADS-B
07:28AM 51.4510 -0.9926 268° West 295 339 9,800 4,620 Climbing FlightAware ADS-B
07:28AM 51.4509 -0.9991 267° West 296 341 10,200 2,460 Climbing FlightAware ADS-B (EGDM)
07:28AM 51.4503 -1.0211 267° West 297 342 10,300 600 Climbing FlightAware ADS-B
07:28AM 51.4503 -1.0211 267° West 297 342 10,300 1,080 Level FlightAware ADS-B
07:28AM 51.4497 -1.0433 269° West 303 349 10,500 1,260 Climbing FlightAware ADS-B (EGNR / CEG)
07:28AM 51.4499 -1.0523 272° West 302 348 10,600 1,680 Climbing FlightAware ADS-B
07:28AM 51.4505 -1.0589 277° West 300 345 10,700 1,200 Climbing FlightAware ADS-B (EGHI / SOU)
07:28AM 51.4512 -1.0655 280° West 302 348 10,700 1,980 Level FlightAware ADS-B
07:28AM 51.4515 -1.0656 283° West 302 348 10,800 1,320 Climbing FlightAware ADS-B
07:29AM 51.4546 -1.0827 290° West 302 348 10,900 1,200 Climbing FlightAware ADS-B
07:29AM 51.4611 -1.1081 294° West 314 361 11,200 1,200 Climbing FlightAware ADS-B
07:29AM 51.4637 -1.1166 293° West 319 367 11,300 960 Climbing FlightAware ADS-B (EGHS)
07:29AM 51.4715 -1.1474 293° West 329 379 11,500 1,080 Climbing FlightAware ADS-B
07:29AM 51.4847 -1.1986 293° West 349 402 11,900 1,200 Climbing FlightAware ADS-B
07:30AM 51.4900 -1.2178 292° West 355 409 12,100 900 Climbing FlightAware ADS-B
07:30AM 51.4930 -1.2303 291° West 360 414 12,100 1,260 Level FlightAware ADS-B (EGKK / LGW)
07:30AM 51.5019 -1.2653 291° West 365 420 12,500 1,740 Climbing FlightAware ADS-B (EGBJ / GLO)
07:30AM 51.5034 -1.2729 293° West 371 427 12,600 1,500 Climbing FlightAware ADS-B
07:30AM 51.5094 -1.2959 292° West 373 429 12,800 780 Climbing FlightAware ADS-B
07:30AM 51.5207 -1.3398 293° West 383 441 13,000 360 Climbing FlightAware ADS-B
07:31AM 51.5303 -1.3739 293° West 382 440 13,000 480 Level FlightAware ADS-B
07:31AM 51.5320 -1.3817 293° West 382 440 13,100 1,500 Climbing FlightAware ADS-B (EGHO)
07:31AM 51.5508 -1.4557 292° West 387 445 13,800 1,680 Climbing FlightAware ADS-B
07:31AM 51.5516 -1.4585 292° West 388 447 14,000 2,100 Climbing FlightAware ADS-B (EGLF / FAB)
07:32AM 51.5716 -1.5391 292° West 393 452 14,900 2,040 Climbing FlightAware ADS-B
07:32AM 51.5703 -1.5336 292° West 393 452 15,100 2,160 Climbing FlightAware ADS-B (EGLF / FAB)
07:32AM 51.5922 -1.6209 292° West 398 458 16,000 2,100 Climbing FlightAware ADS-B
07:32AM 51.5961 -1.6375 292° West 399 459 16,200 1,920 Climbing FlightAware ADS-B (EGHO)
07:33AM 51.6135 -1.7069 292° West 405 466 17,000 1,920 Climbing FlightAware ADS-B
07:33AM 51.6219 -1.7405 291° West 405 466 17,400 1,860 Climbing FlightAware ADS-B (EGNR / CEG)
07:33AM 51.6251 -1.7519 291° West 406 467 17,500 1,860 Climbing FlightAware ADS-B (EGHI / SOU)
07:33AM 51.6356 -1.7943 292° West 411 473 18,000 1,860 Climbing FlightAware ADS-B
07:33AM 51.6363 -1.7971 291° West 408 470 18,000 1,680 Level FlightAware ADS-B (EGHI / SOU)
07:33AM 51.6400 -1.8142 291° West 409 471 18,200 2,160 Climbing FlightAware ADS-B (EGHH / BOH)
07:34AM 51.6572 -1.8832 291° West 414 476 19,100 2,160 Climbing FlightAware ADS-B
07:34AM 51.6568 -1.8830 291° West 410 472 19,100 4,080 Level FlightAware ADS-B (EGHI / SOU)
07:34AM 51.6789 -1.9714 290° West 383 441 21,300 4,140 Climbing FlightAware ADS-B (KMCW)
07:34AM 51.6799 -1.9766 291° West 384 442 21,400 3,000 Climbing FlightAware ADS-B
07:34AM 51.6823 -1.9872 290° West 381 438 21,600 1,320 Climbing FlightAware ADS-B (EGHH / BOH)
07:35AM 51.7003 -2.0598 292° West 392 451 22,100 960 Climbing FlightAware ADS-B
07:35AM 51.7066 -2.0847 292° West 399 459 22,200 780 Climbing FlightAware ADS-B (KCOD)
07:35AM 51.7213 -2.1435 292° West 411 473 22,500 960 Climbing FlightAware ADS-B
07:35AM 51.7216 -2.1466 292° West 415 478 22,600 900 Climbing FlightAware ADS-B (EGDM)
07:36AM 51.7301 -2.1811 292° West 418 481 22,700 360 Climbing FlightAware ADS-B (EGDX / DGX)
07:36AM 51.7349 -2.2013 290° West 420 483 22,700 660 Level FlightAware ADS-B (EGHI / SOU)
07:36AM 51.7434 -2.2341 291° West 429 494 22,900 720 Climbing FlightAware ADS-B
07:36AM 51.7515 -2.2699 290° West 432 497 23,000 540 Climbing FlightAware ADS-B (EGHH / BOH)
07:36AM 51.7659 -2.3283 291° West 445 512 23,200 960 Climbing FlightAware ADS-B
07:37AM 51.7741 -2.3626 291° West 449 517 23,500 1,260 Climbing FlightAware ADS-B (KMCW)
07:37AM 51.7901 -2.4286 291° West 454 522 23,900 1,200 Climbing FlightAware ADS-B
07:37AM 51.7966 -2.4571 291° West 456 525 24,100 1,380 Climbing FlightAware ADS-B
07:37AM 51.8124 -2.5244 288° West 462 532 24,600 1,320 Climbing FlightAware ADS-B (EGBJ / GLO)
07:37AM 51.8158 -2.5443 286° West 462 532 24,700 2,460 Climbing FlightAware ADS-B (EGHO)
07:38AM 51.8198 -2.5644 286° West 466 536 25,100 1,680 Climbing FlightAware ADS-B (EGXP / SQZ)
07:38AM 51.8312 -2.6389 283° West 471 542 25,500 1,500 Climbing FlightAware ADS-B
07:38AM 51.8354 -2.6696 283° West 471 542 25,900 1,620 Climbing FlightAware ADS-B (EGDX / DGX)
07:38AM 51.8397 -2.7006 282° West 471 542 26,000 1,260 Climbing FlightAware ADS-B (EGBJ / GLO)
07:38AM 51.8422 -2.7178 283° West 470 541 26,200 1,800 Climbing FlightAware ADS-B (EGHO)
07:39AM 51.8539 -2.8077 283° West 469 540 26,900 1,680 Climbing FlightAware ADS-B (EHTW / ENS)
07:39AM 51.8570 -2.8282 286° West 468 539 27,100 1,980 Climbing FlightAware ADS-B (EGHH / BOH)
07:39AM 51.8560 -2.8214 288° West 469 540 27,300 6,660 Climbing FlightAware ADS-B (KMCW)
07:39AM 51.8631 -2.8584 294° West 465 535 28,100 3,660 Climbing FlightAware ADS-B (EGHS)
07:39AM 51.8753 -2.9028 282° West 474 545 28,400 780 Climbing FlightAware ADS-B (EGCW)
07:40AM 51.8896 -2.9524 295° West 459 528 28,500 1,200 Climbing FlightAware ADS-B
07:40AM 51.9057 -3.0083 294° West 453 521 29,100 1,800 Climbing FlightAware ADS-B (EGHH / BOH)
07:40AM 51.9103 -3.0237 293° West 452 520 29,200 1,320 Climbing FlightAware ADS-B
07:40AM 51.9136 -3.0360 293° West 451 519 29,300 1,860 Climbing FlightAware ADS-B (EGNR / CEG)
07:40AM 51.9391 -3.1321 293° West 450 518 30,300 2,040 Climbing FlightAware ADS-B (EGDX / DGX)
07:41AM 51.9469 -3.1634 292° West 449 517 30,700 1,860 Climbing FlightAware ADS-B (EGHS)
07:41AM 51.9515 -3.1787 291° West 447 514 30,800 1,260 Climbing FlightAware ADS-B (EGHH / BOH)
07:41AM 51.9618 -3.2225 291° West 447 514 31,100 1,560 Climbing FlightAware ADS-B (EGHH / BOH)
07:41AM 51.9701 -3.2538 292° West 447 514 31,400 1,380 Climbing FlightAware ADS-B (EGHH / BOH)
07:41AM 51.9791 -3.2875 293° West 446 513 31,600 1,080 Climbing FlightAware ADS-B
07:41AM 51.9886 -3.3210 295° West 448 516 31,800 1,140 Climbing FlightAware ADS-B (KCOD)
07:42AM 51.9971 -3.3516 295° West 448 516 32,000 780 Climbing FlightAware ADS-B (KCOD)
07:42AM 52.0015 -3.3669 294° West 445 512 32,000  Level FlightAware ADS-B (EGHH / BOH)
07:42AM 52.0114 -3.4005 294° West 445 512 32,000  Level FlightAware ADS-B
07:42AM 52.0201 -3.4342 293° West 446 513 32,000  Level FlightAware ADS-B
07:42AM 52.0269 -3.4587 293° West 445 512 32,000  Level FlightAware ADS-B (EGHO)
07:43AM 52.0536 -3.5542 293° West 448 516 32,000  Level FlightAware ADS-B
07:43AM 52.0586 -3.5725 293° West 448 516 32,000  Level FlightAware ADS-B (EGHH / BOH)
07:43AM 52.0792 -3.6468 294° West 452 520 32,000  Level FlightAware ADS-B
07:43AM 52.0856 -3.6717 294° West 453 521 32,000  Level FlightAware ADS-B (EGNA)
07:43AM 52.0901 -3.6872 293° West 450 518 32,000  Level FlightAware ADS-B (EGDX / DGX)
07:44AM 52.0962 -3.7090 293° West 450 518 32,000  Level FlightAware ADS-B (EGDX / DGX)
07:44AM 52.1081 -3.7524 294° West 449 517 32,000  Level FlightAware ADS-B (EGDX / DGX)
07:44AM 52.1143 -3.7736 295° West 448 516 32,000  Level FlightAware ADS-B (EGHH / BOH)
07:44AM 52.1311 -3.8243 294° West 453 521 32,000  Level FlightAware ADS-B
07:44AM 52.1369 -3.8422 298° West 450 518 32,000  Level FlightAware ADS-B
07:44AM 52.1444 -3.8659 298° West 450 518 32,000  Level FlightAware ADS-B (EGCW)
07:45AM 52.1770 -3.9646 298° West 451 519 32,000  Level FlightAware ADS-B (EGHH / BOH)
07:45AM 52.1820 -3.9794 297° West 451 519 32,000  Level FlightAware ADS-B (EGHH / BOH)
07:46AM 52.2060 -4.0548 297° West 451 519 32,000  Level FlightAware ADS-B (EGXU / HRT)
07:46AM 52.2404 -4.1634 297° West 451 519 32,000  Level FlightAware ADS-B
07:46AM 52.2500 -4.1937 296° West 448 516 32,000  Level FlightAware ADS-B
07:46AM 52.2598 -4.2239 296° West 448 516 32,000  Level FlightAware ADS-B
07:47AM 52.2895 -4.3211 297° West 451 519 32,000  Level FlightAware ADS-B (EGCW)
07:47AM 52.3169 -4.4090 297° West 452 520 32,000  Level FlightAware ADS-B
07:48AM 52.3291 -4.4456 296° West 448 516 32,000  Level FlightAware ADS-B
07:48AM 52.3390 -4.4790 297° West 452 520 32,000  Level FlightAware ADS-B (EGCW)
07:48AM 52.3452 -4.5001 296° West 448 516 32,000  Level FlightAware ADS-B
07:48AM 52.3727 -4.5884 297° West 452 520 32,000  Level FlightAware ADS-B (EGCW)
07:49AM 52.4028 -4.6857 297° West 451 519 32,000  Level FlightAware ADS-B
07:49AM 52.4294 -4.7706 297° West 451 519 32,000  Level FlightAware ADS-B
07:50AM 52.4560 -4.8556 297° West 451 519 32,000  Level FlightAware ADS-B (EGCW)
07:51AM 52.4918 -4.9712 297° West 452 520 32,000  Level FlightAware ADS-B
07:51AM 52.5163 -5.0480 297° West 454 522 32,000  Level FlightAware ADS-B (EGCW)
07:51AM 52.5259 -5.0787 296° West 451 519 32,000  Level FlightAware ADS-B
07:52AM 52.5593 -5.1899 297° West 457 526 32,000  Level FlightAware ADS-B (EGOD)
07:52AM 52.5887 -5.2858 297° West 456 525 32,000  Level FlightAware ADS-B
07:52AM 52.5989 -5.3197 296° West 451 519 32,000  Level FlightAware ADS-B (EGDX / DGX)
07:53AM 52.6309 -5.4244 297° West 453 521 32,000  Level FlightAware ADS-B
07:53AM 52.6290 -5.4181 296° West 449 517 32,000  Level FlightAware ADS-B (EGDX / DGX)
07:54AM 52.6676 -5.5443 295° West 450 518 32,000  Level FlightAware ADS-B (EGPK / PIK)
07:54AM 52.6962 -5.6402 296° West 453 521 32,000  Level FlightAware ADS-B
07:54AM 52.7060 -5.6741 295° West 448 516 32,000  Level FlightAware ADS-B (EGPK / PIK)
07:54AM 52.7103 -5.6861 295° West 448 516 32,000  Level FlightAware ADS-B (EGPK / PIK)
07:55AM 52.7376 -5.7788 296° West 452 520 32,000  Level FlightAware ADS-B
07:56AM 52.7742 -5.9022 296° West 453 521 32,000  Level FlightAware ADS-B
07:56AM 52.8105 -6.0236 296° West 454 522 32,000  Level FlightAware ADS-B
07:57AM 52.8373 -6.1137 296° West 454 522 32,000  Level FlightAware ADS-B
07:57AM 52.8681 -6.2198 296° West 453 521 32,000  Level FlightAware ADS-B
07:58AM 52.8955 -6.3133 296° West 454 522 32,000  Level FlightAware ADS-B
07:58AM 52.9237 -6.4105 296° West 450 518 32,000  Level FlightAware UK
07:58AM 52.9283 -6.4253 296° West 448 516 32,000  Level FlightAware ADS-B (EIDW / DUB)
07:59AM 52.9587 -6.5294 296° West 444 511 32,000  Level FlightAware ADS-B (EIDW / DUB)
08:00AM 52.9897 -6.6367 296° West 445 512 32,000  Level FlightAware ADS-B
08:00AM 53.0170 -6.7320 295° West 447 514 32,000  Level FlightAware ADS-B
08:01AM 53.0506 -6.8498 295° West 448 516 32,000  Level FlightAware ADS-B (EIDW / DUB)
08:01AM 53.0782 -6.9463 295° West 448 516 32,000  Level FlightAware ADS-B
08:02AM 53.1101 -7.0584 295° West 448 516 32,000  Level FlightAware UK
08:02AM 53.0907 -6.9897 295° West 448 516 32,000  Level FlightAware ADS-B (EGOD)
08:03AM 53.1628 -7.2458 295° West 448 516 32,000  Level FlightAware UK
08:03AM 53.1850 -7.3234 294° West 442 509 32,000  Level FlightAware ADS-B (EGPK / PIK)
08:03AM 53.1961 -7.3637 294° West 441 507 32,000  Level FlightAware ADS-B (EGPK / PIK)
08:04AM 53.2085 -7.4071 294° West 441 507 32,000  Level FlightAware ADS-B (EGPK / PIK)
08:04AM 53.2461 -7.5439 294° West 444 511 32,000  Level FlightAware UK
08:04AM 53.2480 -7.5498 295° West 444 511 32,000  Level FlightAware ADS-B
08:05AM 53.2759 -7.6491 295° West 444 511 32,000  Level FlightAware ADS-B (EGPK / PIK)
08:06AM 53.3043 -7.7548 295° West 443 510 32,000  Level FlightAware ADS-B
08:06AM 53.3137 -7.7861 294° West 440 506 32,000  Level FlightAware ADS-B (EGPK / PIK)
08:06AM 53.3396 -7.8826 295° West 443 510 32,000  Level FlightAware ADS-B (EICK / ORK)
08:07AM 53.3667 -7.9822 294° West 443 510 32,000  Level FlightAware ADS-B (EICK / ORK)
08:07AM 53.3955 -8.0883 293° West 441 507 32,000  Level FlightAware ADS-B (EGPK / PIK)
08:08AM 53.4251 -8.1978 294° West 444 511 32,000  Level FlightAware ADS-B (EGPK / PIK)
08:08AM 53.4408 -8.2542 293° West 441 507 32,000  Level FlightAware ADS-B (EGPK / PIK)
08:08AM 53.4424 -8.2606 293° West 440 506 32,000  Level FlightAware ADS-B (EGPK / PIK)
08:09AM 53.4730 -8.3763 294° West 443 510 32,000  Level FlightAware ADS-B (EICK / ORK)
08:09AM 53.5035 -8.4892 294° West 443 510 32,000  Level FlightAware ADS-B (EGPK / PIK)
08:10AM 53.5298 -8.5895 294° West 442 509 32,000  Level FlightAware ADS-B
08:11AM 53.5586 -8.6991 294° West 442 509 32,000  Level FlightAware ADS-B (EICK / ORK)
08:11AM 53.5877 -8.8092 294° West 442 509 32,000  Level FlightAware ADS-B (EICK / ORK)
08:12AM 53.6124 -8.9032 294° West 442 509 32,000  Level FlightAware ADS-B (EICK / ORK)
08:12AM 53.6392 -9.0069 294° West 440 506 32,000  Level FlightAware ADS-B (EICK / ORK)
08:13AM 53.6640 -9.1010 294° West 440 506 32,000  Level FlightAware ADS-B (EICK / ORK)
08:13AM 53.6696 -9.1229 294° West 441 507 32,000  Level FlightAware ADS-B (EGAE / LDY)
08:13AM 53.6774 -9.1512 293° West 440 506 32,000  Level FlightAware ADS-B (EICK / ORK)
08:15AM 53.7637 -9.4882 293° West 439 505 32,000  Level FlightAware ADS-B (EICK / ORK)
08:15AM 53.7669 -9.5007 293° West 439 505 32,000  Level FlightAware ADS-B (EICK / ORK)
09:06AM 56.0000 -20.0000 303° West 470 541 32,000  Level ETMS Enhanced Traffic Management System
09:07AM 57.5022 -18.5510 303° West  Level Estimated
09:08AM 57.5728 -18.7593 302° West  Level Estimated
09:09AM 57.6432 -18.9685 302° West  Level Estimated
09:10AM 57.7131 -19.1785 302° West  Level Estimated
09:11AM 57.7828 -19.3894 302° West  Level Estimated
09:12AM 56.4254 -21.1852 302° West 470 541 32,000  Level FlightAware Transoceanic
09:13AM 56.4952 -21.3853 302° West 470 541 32,000  Level FlightAware Transoceanic
09:14AM 56.5647 -21.5861 302° West 470 541 32,000  Level FlightAware Transoceanic
09:15AM 56.6339 -21.7877 302° West 470 541 32,000  Level FlightAware Transoceanic
09:16AM 56.7027 -21.9900 302° West 470 541 32,000  Level FlightAware Transoceanic
09:17AM 56.7712 -22.1931 302° West 470 541 32,000  Level FlightAware Transoceanic
09:18AM 56.8394 -22.3969 301° West 470 541 32,000  Level FlightAware Transoceanic
09:19AM 56.9072 -22.6014 301° West 470 541 32,000  Level FlightAware Transoceanic
09:20AM 56.9747 -22.8067 301° West 470 541 32,000  Level FlightAware Transoceanic
09:21AM 57.0418 -23.0127 301° West 470 541 32,000  Level FlightAware Transoceanic
09:22AM 57.1086 -23.2194 301° West 470 541 32,000  Level FlightAware Transoceanic
09:23AM 57.1751 -23.4270 300° West 470 541 32,000  Level FlightAware Transoceanic
09:24AM 57.2412 -23.6352 300° West 470 541 32,000  Level FlightAware Transoceanic
09:25AM 57.3070 -23.8442 300° West 470 541 32,000  Level FlightAware Transoceanic
09:26AM 57.3725 -24.0539 300° West 470 541 32,000  Level FlightAware Transoceanic
09:27AM 57.4376 -24.2645 300° West 470 541 32,000  Level FlightAware Transoceanic
09:28AM 57.5023 -24.4757 300° West 470 541 32,000  Level FlightAware Transoceanic
09:29AM 57.5667 -24.6877 299° West 470 541 32,000  Level FlightAware Transoceanic
09:30AM 57.6307 -24.9004 299° West 470 541 32,000  Level FlightAware Transoceanic
09:31AM 57.6944 -25.1139 299° West 470 541 32,000  Level FlightAware Transoceanic
09:32AM 57.7577 -25.3281 299° West 470 541 32,000  Level FlightAware Transoceanic
09:33AM 57.8206 -25.5431 299° West 470 541 32,000  Level FlightAware Transoceanic
09:34AM 57.8832 -25.7589 299° West 470 541 32,000  Level FlightAware Transoceanic
09:35AM 57.9454 -25.9754 298° West 470 541 32,000  Level FlightAware Transoceanic
09:36AM 58.0073 -26.1926 298° West 470 541 32,000  Level FlightAware Transoceanic
09:37AM 58.0687 -26.4106 298° West 470 541 32,000  Level FlightAware Transoceanic
09:38AM 58.1298 -26.6293 298° West 470 541 32,000  Level FlightAware Transoceanic
09:39AM 58.1906 -26.8488 298° West 470 541 32,000  Level FlightAware Transoceanic
09:40AM 58.2509 -27.0691 297° West 470 541 32,000  Level FlightAware Transoceanic
09:41AM 58.3109 -27.2900 297° West 470 541 32,000  Level FlightAware Transoceanic
09:42AM 58.3704 -27.5118 297° West 470 541 32,000  Level FlightAware Transoceanic
09:43AM 58.4296 -27.7343 297° West 470 541 32,000  Level FlightAware Transoceanic
09:44AM 58.4885 -27.9575 297° West 470 541 32,000  Level FlightAware Transoceanic
09:45AM 58.5469 -28.1815 296° West 470 541 32,000  Level FlightAware Transoceanic
09:46AM 58.6049 -28.4062 296° West 470 541 32,000  Level FlightAware Transoceanic
09:47AM 58.6626 -28.6316 296° West 470 541 32,000  Level FlightAware Transoceanic
09:48AM 58.7198 -28.8578 296° West 470 541 32,000  Level FlightAware Transoceanic
09:49AM 58.7766 -29.0848 296° West 470 541 32,000  Level FlightAware Transoceanic
09:50AM 58.8331 -29.3125 295° West 470 541 32,000  Level FlightAware Transoceanic
09:51AM 58.8891 -29.5409 295° West 470 541 32,000  Level FlightAware Transoceanic
09:52AM 58.9448 -29.7701 295° West 470 541 32,000  Level FlightAware Transoceanic
09:53AM 59.0006 -30.0027 295° West  Level FlightAware Approximate
09:54AM 59.0014 -30.0054 296° West  Level FlightAware Approximate
09:55AM 59.0586 -30.2372 296° West  Level FlightAware Approximate
09:56AM 59.1154 -30.4698 296° West  Level FlightAware Approximate
09:57AM 59.1718 -30.7032 295° West  Level FlightAware Approximate
09:58AM 59.2278 -30.9373 295° West  Level FlightAware Approximate
09:59AM 59.2833 -31.1721 295° West  Level FlightAware Approximate
10:00AM 59.3385 -31.4078 295° West  Level FlightAware Approximate
10:01AM 59.3932 -31.6442 295° West  Level FlightAware Approximate
10:02AM 59.4474 -31.8814 294° West  Level FlightAware Approximate
10:03AM 59.5013 -32.1193 294° West  Level FlightAware Approximate
10:04AM 59.5547 -32.3580 294° West  Level FlightAware Approximate
10:05AM 59.6077 -32.5974 294° West  Level FlightAware Approximate
10:06AM 59.6602 -32.8376 294° West  Level FlightAware Approximate
10:07AM 59.7123 -33.0785 293° West  Level FlightAware Approximate
10:08AM 59.7640 -33.3202 293° West  Level FlightAware Approximate
10:09AM 59.8152 -33.5627 293° West  Level FlightAware Approximate
10:10AM 59.8659 -33.8059 293° West  Level FlightAware Approximate
10:11AM 59.9162 -34.0498 292° West  Level FlightAware Approximate
10:12AM 59.9681 -34.2927 294° West  Level FlightAware Approximate
10:13AM 60.0206 -34.5356 293° West  Level FlightAware Approximate
10:14AM 60.0727 -34.7792 293° West  Level FlightAware Approximate
10:15AM 60.1243 -35.0236 293° West  Level FlightAware Approximate
10:16AM 60.1754 -35.2687 293° West  Level FlightAware Approximate
10:17AM 60.2261 -35.5146 293° West  Level FlightAware Approximate
10:18AM 60.2734 -35.7636 291° West  Level FlightAware Approximate
10:19AM 60.3198 -36.0136 291° West  Level FlightAware Approximate
10:20AM 60.3658 -36.2644 290° West  Level FlightAware Approximate
10:21AM 60.4112 -36.5158 290° West  Level FlightAware Approximate
10:22AM 60.4562 -36.7679 290° West  Level FlightAware Approximate
10:23AM 60.5008 -37.0208 290° West  Level FlightAware Approximate
10:24AM 60.5462 -37.2733 290° West  Level FlightAware Approximate
10:25AM 60.5913 -37.5264 290° West  Level FlightAware Approximate
10:26AM 60.6358 -37.7803 290° West  Level FlightAware Approximate
10:27AM 60.6799 -38.0349 290° West  Level FlightAware Approximate
10:28AM 60.7235 -38.2901 289° West  Level FlightAware Approximate
10:29AM 60.7665 -38.5461 289° West  Level FlightAware Approximate
10:30AM 60.8092 -38.8027 289° West  Level FlightAware Approximate
10:31AM 60.8513 -39.0601 289° West  Level FlightAware Approximate
10:32AM 60.8929 -39.3181 288° West  Level FlightAware Approximate
10:33AM 60.9340 -39.5768 288° West  Level FlightAware Approximate
10:34AM 60.9746 -39.8361 288° West  Level FlightAware Approximate
10:35AM 61.0225 -40.0895 297° West  Level FlightAware Approximate
10:36AM 61.0831 -40.3325 297° West  Level FlightAware Approximate
10:37AM 61.1432 -40.5764 297° West  Level FlightAware Approximate
10:38AM 61.2029 -40.8213 297° West  Level FlightAware Approximate
10:39AM 61.2622 -41.0671 297° West  Level FlightAware Approximate
10:40AM 61.3210 -41.3138 297° West  Level FlightAware Approximate
10:41AM 61.3794 -41.5614 296° West  Level FlightAware Approximate
10:42AM 61.4373 -41.8100 296° West  Level FlightAware Approximate
10:43AM 61.4948 -42.0594 296° West  Level FlightAware Approximate
10:44AM 61.5518 -42.3098 296° West  Level FlightAware Approximate
10:45AM 61.6083 -42.5611 295° West  Level FlightAware Approximate
10:46AM 61.6644 -42.8134 295° West  Level FlightAware Approximate
10:47AM 61.7200 -43.0665 295° West  Level FlightAware Approximate
10:48AM 61.7752 -43.3206 295° West  Level FlightAware Approximate
10:49AM 61.8298 -43.5756 295° West  Level FlightAware Approximate
10:50AM 61.8840 -43.8314 294° West  Level FlightAware Approximate
10:51AM 61.9378 -44.0882 294° West  Level FlightAware Approximate
10:52AM 61.9910 -44.3459 294° West  Level FlightAware Approximate
10:53AM 62.0438 -44.6044 294° West  Level FlightAware Approximate
10:54AM 62.0961 -44.8639 293° West  Level FlightAware Approximate
10:55AM 62.1479 -45.1243 293° West  Level FlightAware Approximate
10:56AM 62.1992 -45.3855 293° West  Level FlightAware Approximate
10:57AM 62.2500 -45.6477 293° West  Level FlightAware Approximate
10:58AM 62.3003 -45.9107 292° West  Level FlightAware Approximate
10:59AM 62.3501 -46.1745 292° West  Level FlightAware Approximate
11:00AM 62.3994 -46.4393 292° West  Level FlightAware Approximate
11:01AM 62.4482 -46.7049 292° West  Level FlightAware Approximate
11:02AM 62.4965 -46.9714 292° West  Level FlightAware Approximate
11:03AM 62.5443 -47.2388 291° West  Level FlightAware Approximate
11:04AM 62.5916 -47.5070 291° West  Level FlightAware Approximate
11:05AM 62.6384 -47.7761 291° West  Level FlightAware Approximate
11:06AM 62.6846 -48.0460 291° West  Level FlightAware Approximate
11:07AM 62.7304 -48.3167 290° West  Level FlightAware Approximate
11:08AM 62.7756 -48.5883 290° West  Level FlightAware Approximate
11:09AM 62.8202 -48.8607 290° West  Level FlightAware Approximate
11:10AM 62.8644 -49.1340 290° West  Level FlightAware Approximate
11:11AM 62.9080 -49.4080 289° West  Level FlightAware Approximate
11:12AM 62.9511 -49.6829 289° West  Level FlightAware Approximate
11:13AM 62.9937 -49.9585 289° West  Level FlightAware Approximate
11:14AM 63.0323 -50.2373 287° West  Level FlightAware Approximate
11:15AM 63.0699 -50.5173 287° West  Level FlightAware Approximate
11:16AM 63.1068 -50.7979 286° West  Level FlightAware Approximate
11:17AM 63.1433 -51.0793 286° West  Level FlightAware Approximate
11:18AM 63.1791 -51.3614 286° West  Level FlightAware Approximate
11:19AM 63.2145 -51.6441 286° West  Level FlightAware Approximate
11:20AM 63.2492 -51.9276 285° West  Level FlightAware Approximate
11:21AM 63.2834 -52.2117 285° West  Level FlightAware Approximate
11:22AM 63.3170 -52.4965 285° West  Level FlightAware Approximate
11:23AM 63.3500 -52.7819 285° West  Level FlightAware Approximate
11:24AM 63.3825 -53.0680 284° West  Level FlightAware Approximate
11:25AM 63.4144 -53.3548 284° West  Level FlightAware Approximate
11:26AM 63.4457 -53.6421 284° West  Level FlightAware Approximate
11:27AM 63.4765 -53.9301 284° West  Level FlightAware Approximate
11:28AM 63.5066 -54.2187 283° West  Level FlightAware Approximate
11:29AM 63.5362 -54.5079 283° West  Level FlightAware Approximate
11:30AM 63.5652 -54.7978 283° West  Level FlightAware Approximate
11:31AM 63.5937 -55.0882 283° West  Level FlightAware Approximate
11:32AM 63.6215 -55.3791 282° West  Level FlightAware Approximate
11:33AM 63.6487 -55.6707 282° West  Level FlightAware Approximate
11:34AM 63.6758 -55.9625 282° West  Level FlightAware Approximate
11:35AM 63.7033 -56.2545 282° West  Level FlightAware Approximate
11:36AM 63.7303 -56.5470 282° West  Level FlightAware Approximate
11:36AM 63.7167 -55.8667 280° West 480 552 34,000  Level Gander Center
11:37AM 63.7566 -56.8401 282° West  Level FlightAware Approximate
11:37AM 63.7500 -56.2000 283° West 480 552 34,000  Level Gander Center
11:38AM 63.7823 -57.1337 281° West  Level FlightAware Approximate
11:38AM 63.7667 -56.4833 278° West 480 552 34,000  Level Gander Center
11:39AM 63.8074 -57.4279 281° West  Level FlightAware Approximate
11:39AM 63.8000 -56.7833 284° West 480 552 34,000  Level Gander Center
11:40AM 63.8319 -57.7226 281° West  Level FlightAware Approximate
11:40AM 63.8167 -57.0833 277° West 480 552 34,000  Level Gander Center
11:41AM 63.8557 -58.0154 281° West  Level FlightAware Approximate
11:41AM 63.8500 -57.3833 284° West 480 552 34,000  Level Gander Center
11:42AM 63.8788 -58.3087 280° West  Level FlightAware Approximate
11:42AM 63.8667 -57.6833 277° West 480 552 34,000  Level Gander Center
11:43AM 63.9000 -57.9833 284° West 480 552 34,000  Level Gander Center
11:44AM 63.9167 -58.2667 278° West 480 552 34,000  Level Gander Center
11:45AM 63.9167 -58.4333 270° West 480 552 34,000  Level Montreal Center
11:46AM 63.9333 -58.7333 277° West 480 552 34,000  Level Montreal Center
11:47AM 63.9500 -59.0333 277° West 480 552 34,000  Level Montreal Center
11:48AM 63.9833 -59.3167 285° West 480 552 34,000  Level Montreal Center
11:49AM 64.0000 -59.6333 277° West 480 552 34,000  Level Montreal Center
11:50AM 64.0167 -59.9333 277° West 480 552 34,000  Level Montreal Center
11:51AM 64.0167 -60.2500 270° West 480 552 34,000  Level Montreal Center
11:52AM 64.0333 -60.5167 278° West 480 552 34,000  Level Montreal Center
11:53AM 64.0333 -60.8167 270° West 480 552 34,000  Level Montreal Center
11:54AM 64.0333 -61.1333 270° West 480 552 34,000  Level Montreal Center
11:55AM 64.0333 -61.4500 270° West 480 552 34,000  Level Montreal Center
11:56AM 64.0333 -61.7167 270° West 480 552 34,000  Level Montreal Center
11:57AM 64.0333 -62.0333 270° West 480 552 34,000  Level Montreal Center
11:58AM 64.0333 -62.3833 270° West 480 552 34,000  Level Montreal Center
11:59AM 64.0333 -62.6500 270° West 470 541 34,000  Level Montreal Center
12:00PM 64.0333 -62.9667 270° West 470 541 34,000  Level Montreal Center
12:01PM 64.0167 -63.2667 263° West 480 552 34,000  Level Montreal Center
12:02PM 64.0333 -63.5500 278° West 480 552 34,000  Level Montreal Center
12:03PM 64.0167 -63.8500 263° West 480 552 34,000  Level Montreal Center
12:04PM 64.0167 -64.1667 270° West 480 552 34,000  Level Montreal Center
12:05PM 64.0167 -64.4667 270° West 480 552 34,000  Level Montreal Center
12:06PM 64.0167 -64.7833 270° West 480 552 34,000  Level Montreal Center
12:07PM 64.0167 -65.1000 270° West 480 552 34,000  Level Montreal Center
12:08PM 64.0167 -65.4000 270° West 480 552 34,000  Level Montreal Center
12:09PM 64.0000 -65.7167 263° West 480 552 34,000  Level Montreal Center
12:10PM 64.0000 -65.9833 270° West 480 552 34,000  Level Montreal Center
12:11PM 63.9833 -66.3000 263° West 480 552 34,000  Level Montreal Center
12:12PM 64.0000 -66.6000 277° West 480 552 34,000  Level Montreal Center
12:13PM 63.9833 -66.9167 263° West 480 552 34,000  Level Montreal Center
12:14PM 63.9667 -67.2167 263° West 480 552 34,000  Level Montreal Center
12:15PM 63.9667 -67.5333 270° West 480 552 34,000  Level Montreal Center
12:16PM 63.9500 -67.8333 263° West 480 552 34,000  Level Montreal Center
12:17PM 63.9500 -68.1500 270° West 480 552 34,000  Level Montreal Center
12:18PM 63.9333 -68.4167 262° West 480 552 34,000  Level Montreal Center
12:20PM 63.9000 -69.0333 263° West 480 552 34,000  Level Montreal Center
12:21PM 63.8833 -69.3500 263° West 490 564 34,000  Level Montreal Center
12:22PM 63.8833 -69.6500 270° West 490 564 34,000  Level Montreal Center
12:23PM 63.8667 -69.9500 263° West 490 564 34,000  Level Montreal Center
12:24PM 63.8500 -70.2667 263° West 490 564 34,000  Level Montreal Center
12:25PM 63.8333 -70.5667 263° West 490 564 34,000  Level Montreal Center
12:26PM 63.8333 -70.8833 270° West 490 564 34,000  Level Montreal Center
12:27PM 63.8000 -71.1833 256° West 490 564 34,000  Level Montreal Center
12:28PM 63.7833 -71.4833 263° West 490 564 34,000  Level Montreal Center
12:29PM 63.7667 -71.8000 263° West 490 564 34,000  Level Montreal Center
12:30PM 63.7500 -72.1000 263° West 490 564 34,000  Level Montreal Center
12:31PM 63.7167 -72.4000 256° West 490 564 34,000  Level Montreal Center
12:32PM 63.7167 -72.7167 270° West 490 564 34,000  Level Montreal Center
12:33PM 63.6833 -73.0167 256° West 490 564 34,000  Level Montreal Center
12:34PM 63.6833 -73.3167 270° West 490 564 34,000  Level Montreal Center
12:35PM 63.6500 -73.6167 256° West 490 564 34,000  Level Montreal Center
12:36PM 63.6167 -73.9167 256° West 490 564 34,000  Level Montreal Center
12:37PM 63.6000 -74.2333 263° West 490 564 34,000  Level Montreal Center
12:38PM 63.5667 -74.5333 256° West 490 564 34,000  Level Montreal Center
12:39PM 63.5500 -74.8333 263° West 490 564 34,000  Level Montreal Center
12:40PM 63.5333 -75.1333 263° West 490 564 34,000  Level Montreal Center
12:41PM 63.5000 -75.4333 256° West 490 564 34,000  Level Montreal Center
12:43PM 63.4341 -75.7866 259° West  Level FlightAware Approximate
12:50PM 63.2471 -77.7816 259° West  Level FlightAware Approximate
12:51PM 63.2179 -78.0644 257° West  Level FlightAware Approximate
12:52PM 63.1880 -78.3464 257° West  Level FlightAware Approximate
12:53PM 63.1575 -78.6279 257° West  Level FlightAware Approximate
12:54PM 63.1265 -78.9088 256° West  Level FlightAware Approximate
12:55PM 63.0949 -79.1890 256° West  Level FlightAware Approximate
12:56PM 63.0628 -79.4687 256° West  Level FlightAware Approximate
12:57PM 63.0301 -79.7477 256° West  Level FlightAware Approximate
12:58PM 62.9957 -80.0253 249° West  Level FlightAware Approximate
12:59PM 62.9496 -80.2944 249° West  Level FlightAware Approximate
01:00PM 62.9031 -80.5625 249° West  Level FlightAware Approximate
01:01PM 62.8560 -80.8298 249° West  Level FlightAware Approximate
01:02PM 62.8084 -81.0963 249° West  Level FlightAware Approximate
01:03PM 62.7518 -81.3533 244° Southwest  Level Estimated
01:04PM 62.6947 -81.6093 244° Southwest  Level Estimated
01:05PM 62.6371 -81.8643 244° Southwest  Level Estimated
01:06PM 62.5790 -82.1183 244° Southwest  Level Estimated
01:07PM 62.5205 -82.3713 243° Southwest  Level Estimated
01:08PM 62.4616 -82.6233 243° Southwest  Level Estimated
01:09PM 62.4022 -82.8743 243° Southwest  Level Estimated
01:10PM 62.3423 -83.1244 243° Southwest  Level Estimated
01:11PM 62.2820 -83.3734 243° Southwest  Level Estimated
01:12PM 62.2213 -83.6214 242° Southwest  Level Estimated
01:13PM 62.1601 -83.8685 242° Southwest  Level Estimated
01:14PM 62.0985 -84.1145 242° Southwest  Level Estimated
01:15PM 62.0364 -84.3595 242° Southwest  Level Estimated
01:16PM 61.9739 -84.6036 241° Southwest  Level Estimated
01:17PM 61.9110 -84.8466 241° Southwest  Level Estimated
01:18PM 61.8477 -85.0886 241° Southwest  Level Estimated
01:19PM 61.7839 -85.3296 241° Southwest  Level Estimated
01:20PM 61.7197 -85.5696 241° Southwest  Level Estimated
01:21PM 61.6551 -85.8087 240° Southwest  Level Estimated
01:22PM 61.5901 -86.0467 240° Southwest  Level Estimated
01:23PM 61.5246 -86.2837 240° Southwest  Level Estimated
01:24PM 61.4588 -86.5197 240° Southwest  Level Estimated
01:25PM 61.3925 -86.7548 240° Southwest  Level Estimated
01:26PM 61.3259 -86.9888 239° Southwest  Level Estimated
01:27PM 61.2588 -87.2218 239° Southwest  Level Estimated
01:28PM 61.1914 -87.4538 239° Southwest  Level Estimated
01:29PM 61.1235 -87.6849 239° Southwest  Level Estimated
01:30PM 61.0553 -87.9149 239° Southwest  Level Estimated
01:31PM 60.9866 -88.1440 238° Southwest  Level Estimated
01:32PM 60.9176 -88.3721 238° Southwest  Level Estimated
01:33PM 60.8482 -88.5991 238° Southwest  Level Estimated
01:34PM 60.7785 -88.8252 238° Southwest  Level Estimated
01:35PM 60.7083 -89.0503 238° Southwest  Level Estimated
01:36PM 60.6377 -89.2745 237° Southwest  Level Estimated
01:37PM 60.5668 -89.4976 237° Southwest  Level Estimated
01:38PM 60.4956 -89.7198 237° Southwest  Level Estimated
01:39PM 60.4239 -89.9409 237° Southwest  Level Estimated
01:40PM 60.3519 -90.1611 237° Southwest  Level Estimated
01:41PM 60.2795 -90.3804 236° Southwest  Level Estimated
01:42PM 60.2068 -90.5987 236° Southwest  Level Estimated
01:43PM 60.1337 -90.8160 236° Southwest  Level Estimated
01:44PM 60.0602 -91.0323 236° Southwest  Level Estimated
01:45PM 59.9865 -91.2477 236° Southwest  Level Estimated
01:46PM 59.9123 -91.4621 235° Southwest  Level Estimated
01:47PM 59.8378 -91.6755 235° Southwest  Level Estimated
01:48PM 59.7630 -91.8880 235° Southwest  Level Estimated
01:49PM 59.6878 -92.0996 235° Southwest  Level Estimated
01:50PM 59.6123 -92.3102 235° Southwest  Level Estimated
01:51PM 59.5364 -92.5198 235° Southwest  Level Estimated
01:52PM 59.4602 -92.7285 234° Southwest  Level Estimated
01:53PM 59.3837 -92.9363 234° Southwest  Level Estimated
01:54PM 59.3069 -93.1431 234° Southwest  Level Estimated
01:54PM 59.2500 -94.9000 233° Southwest 510 587 36,000  Level Edmonton Center
01:55PM 59.2297 -93.3490 234° Southwest  Level Estimated
01:55PM 59.1500 -95.1333 230° Southwest 500 575 36,000  Level Edmonton Center
01:56PM 59.1522 -93.5539 234° Southwest  Level Estimated
01:56PM 59.0667 -95.3167 229° Southwest 500 575 36,000  Level Edmonton Center
01:57PM 59.0744 -93.7580 233° Southwest  Level Estimated
01:57PM 58.9833 -95.5500 235° Southwest 500 575 36,000  Level Edmonton Center
01:58PM 58.9963 -93.9611 233° Southwest  Level Estimated
01:58PM 58.8833 -95.7667 228° Southwest 500 575 36,000  Level Edmonton Center
01:59PM 58.9178 -94.1633 233° Southwest  Level Estimated
01:59PM 58.8000 -95.9667 231° Southwest 510 587 36,000  Level Edmonton Center
02:00PM 58.7000 -96.1833 228° Southwest 510 587 36,000  Level Edmonton Center
02:01PM 58.6167 -96.4000 234° Southwest 510 587 36,000  Level Edmonton Center
02:02PM 58.5333 -96.6167 234° Southwest 500 575 36,000  Level Edmonton Center
02:03PM 58.4333 -96.8333 229° Southwest 500 575 36,000  Level Edmonton Center
02:04PM 58.3333 -97.0500 229° Southwest 500 575 36,000  Level Edmonton Center
02:05PM 58.2667 -97.2333 235° Southwest 500 575 36,000  Level Edmonton Center
02:06PM 58.1667 -97.5000 235° Southwest 510 587 36,000  Level Winnipeg Center
02:07PM 58.0667 -97.7167 229° Southwest 510 587 36,000  Level Winnipeg Center
02:08PM 57.9833 -97.9000 229° Southwest 510 587 36,000  Level Winnipeg Center
02:09PM 57.8833 -98.0500 219° Southwest 500 575 36,000  Level Edmonton Center
02:10PM 57.8167 -98.2667 240° Southwest 500 575 36,000  Level Edmonton Center
02:11PM 57.7000 -98.4833 225° Southwest 500 575 36,000  Level Edmonton Center
02:12PM 57.6167 -98.6500 227° Southwest 500 575 36,000  Level Edmonton Center
02:13PM 57.5167 -98.8500 227° Southwest 500 575 36,000  Level Edmonton Center
02:14PM 57.4167 -99.0667 229° Southwest 500 575 36,000  Level Edmonton Center
02:15PM 57.3333 -99.2333 227° Southwest 500 575 36,000  Level Edmonton Center
02:16PM 57.2500 -99.5000 240° Southwest 500 575 36,000  Level Winnipeg Center
02:17PM 57.1500 -99.6667 222° Southwest 500 575 36,000  Level Winnipeg Center
02:18PM 57.0667 -99.8833 235° Southwest 500 575 36,000  Level Winnipeg Center
02:19PM 56.9667 -100.0667 225° Southwest 500 575 36,000  Level Winnipeg Center
02:20PM 56.8833 -100.2667 233° Southwest 490 564 36,000  Level Winnipeg Center
02:21PM 56.8167 -100.4500 236° Southwest 490 564 36,000  Level Winnipeg Center
02:22PM 56.7167 -100.6500 228° Southwest 490 564 36,000  Level Winnipeg Center
02:23PM 56.6333 -100.8500 233° Southwest 490 564 36,000  Level Winnipeg Center
02:24PM 56.5333 -101.0667 230° Southwest 490 564 36,000  Level Winnipeg Center
02:25PM 56.4667 -101.2333 234° Southwest 490 564 36,000  Level Winnipeg Center
02:26PM 56.3667 -101.3833 220° Southwest 490 564 36,000  Level Edmonton Center
02:27PM 56.2833 -101.5667 231° Southwest 490 564 36,000  Level Edmonton Center
02:28PM 56.2000 -101.8333 241° Southwest 490 564 36,000  Level Winnipeg Center
02:29PM 56.1167 -102.0000 228° Southwest 500 575 36,000  Level Winnipeg Center
02:30PM 56.0333 -102.2000 233° Southwest 500 575 36,000  Level Winnipeg Center
02:31PM 55.9333 -102.4000 228° Southwest 490 564 36,000  Level Winnipeg Center
02:32PM 55.8500 -102.6000 233° Southwest 500 575 36,000  Level Winnipeg Center
02:33PM 55.7500 -102.7667 223° Southwest 500 575 36,000  Level Winnipeg Center
02:34PM 55.6667 -102.9167 225° Southwest 490 564 36,000  Level Edmonton Center
02:35PM 55.5833 -103.1000 231° Southwest 490 564 36,000  Level Edmonton Center
02:36PM 55.5000 -103.2833 231° Southwest 490 564 36,000  Level Edmonton Center
02:37PM 55.4000 -103.4667 226° Southwest 490 564 36,000  Level Edmonton Center
02:38PM 55.3000 -103.6500 226° Southwest 490 564 36,000  Level Edmonton Center
02:39PM 55.2333 -103.9000 245° Southwest 500 575 36,000  Level Winnipeg Center
02:40PM 55.1333 -104.0500 221° Southwest 500 575 36,000  Level Winnipeg Center
02:41PM 55.0333 -104.2500 229° Southwest 500 575 36,000  Level Winnipeg Center
02:42PM 54.9667 -104.4333 238° Southwest 500 575 36,000  Level Winnipeg Center
02:43PM 54.8667 -104.6000 224° Southwest 500 575 36,000  Level Winnipeg Center
02:44PM 54.7667 -104.8000 229° Southwest 500 575 36,000  Level Winnipeg Center
02:45PM 54.6667 -104.9667 224° Southwest 490 564 36,000  Level Winnipeg Center
02:46PM 54.5833 -105.1500 232° Southwest 490 564 36,000  Level Winnipeg Center
02:47PM 54.5000 -105.3000 226° Southwest 490 564 36,000  Level Winnipeg Center
02:48PM 54.4000 -105.4833 227° Southwest 490 564 36,000  Level Winnipeg Center
02:49PM 54.3167 -105.6500 229° Southwest 490 564 36,000  Level Winnipeg Center
02:50PM 54.2167 -105.8167 224° Southwest 480 552 36,000  Level Winnipeg Center
02:51PM 54.1333 -106.0167 235° Southwest 480 552 36,000  Level Winnipeg Center
02:52PM 54.0333 -106.1667 221° Southwest 480 552 36,000  Level Winnipeg Center
02:53PM 53.9500 -106.3500 232° Southwest 480 552 36,000  Level Winnipeg Center
02:54PM 53.8500 -106.5000 222° Southwest 480 552 36,000  Level Winnipeg Center
02:55PM 53.7667 -106.6667 230° Southwest 480 552 36,000  Level Winnipeg Center
02:56PM 53.6833 -106.8500 233° Southwest 480 552 36,000  Level Winnipeg Center
02:57PM 53.5833 -107.0000 222° Southwest 490 564 36,000  Level Winnipeg Center
02:58PM 53.4833 -107.1667 225° Southwest 490 564 36,000  Level Winnipeg Center
02:59PM 53.4000 -107.3167 227° Southwest 490 564 36,000  Level Winnipeg Center
03:00PM 53.2833 -107.4500 214° Southwest 480 552 36,000  Level Edmonton Center
03:01PM 53.2000 -107.6667 237° Southwest 490 564 36,000  Level Winnipeg Center
03:02PM 53.1000 -107.8333 225° Southwest 490 564 36,000  Level Winnipeg Center
03:03PM 53.0167 -107.9833 227° Southwest 490 564 36,000  Level Winnipeg Center
03:04PM 52.9167 -108.1000 215° Southwest 480 552 36,000  Level Edmonton Center
03:05PM 52.8167 -108.3000 230° Southwest 480 552 36,000  Level Winnipeg Center
03:06PM 52.7333 -108.4500 227° Southwest 480 552 36,000  Level Winnipeg Center
03:07PM 52.6167 -108.6167 221° Southwest 480 552 36,000  Level Winnipeg Center
03:08PM 52.5333 -108.7500 224° Southwest 480 552 36,000  Level Winnipeg Center
03:09PM 52.4167 -108.8500 208° Southwest 480 552 36,000  Level Edmonton Center
03:10PM 52.3333 -109.0000 228° Southwest 480 552 36,000  Level Edmonton Center
03:11PM 52.2333 -109.2000 231° Southwest 490 564 36,000  Level Winnipeg Center
03:12PM 52.1333 -109.3333 219° Southwest 500 575 36,000  Level Winnipeg Center
03:13PM 52.0167 -109.5000 221° Southwest 490 564 36,000  Level Winnipeg Center
03:14PM 51.9167 -109.6333 219° Southwest 490 564 36,000  Level Winnipeg Center
03:15PM 51.8167 -109.7500 216° Southwest 480 552 36,000  Level Edmonton Center
03:16PM 51.7167 -109.9333 229° Southwest 480 552 36,000  Level Winnipeg Center
03:17PM 51.6167 -110.0167 207° Southwest 470 541 36,000  Level Edmonton Center
03:18PM 51.5167 -110.1833 226° Southwest 470 541 36,000  Level Edmonton Center
03:19PM 51.4333 -110.3000 221° Southwest 470 541 36,000  Level Edmonton Center
03:20PM 51.3167 -110.4500 219° Southwest 470 541 36,000  Level Edmonton Center
03:21PM 51.2333 -110.6000 228° Southwest 470 541 36,000  Level Edmonton Center
03:22PM 51.1167 -110.7500 219° Southwest 470 541 36,000  Level Edmonton Center
03:23PM 51.0333 -110.8667 221° Southwest 470 541 36,000  Level Edmonton Center
03:24PM 50.9167 -111.0167 219° Southwest 470 541 36,000  Level Edmonton Center
03:25PM 50.8333 -111.1667 229° Southwest 480 552 36,000  Level Edmonton Center
03:26PM 50.7167 -111.2833 212° Southwest 480 552 36,000  Level Edmonton Center
03:27PM 50.6333 -111.4333 229° Southwest 470 541 36,000  Level Edmonton Center
03:28PM 50.5167 -111.5667 216° Southwest 490 564 36,000  Level Edmonton Center
03:29PM 50.4167 -111.7167 224° Southwest 490 564 36,000  Level Edmonton Center
03:30PM 50.3167 -111.8667 224° Southwest 490 564 36,000  Level Edmonton Center
03:31PM 50.2000 -112.0000 216° Southwest 490 564 36,000  Level Edmonton Center
03:32PM 50.0833 -112.1500 220° Southwest 500 575 36,000  Level Edmonton Center
03:33PM 50.0000 -112.2833 226° Southwest 490 564 36,000  Level Edmonton Center
03:34PM 49.8833 -112.4000 213° Southwest 490 564 36,000  Level Edmonton Center
03:35PM 49.7833 -112.5667 227° Southwest 500 575 36,000  Level Edmonton Center
03:36PM 49.6833 -112.6833 217° Southwest 490 564 36,000  Level Edmonton Center
03:37PM 49.5667 -112.8333 220° Southwest 490 564 36,000  Level Edmonton Center
03:38PM 49.4667 -112.9500 217° Southwest 490 564 36,000  Level Edmonton Center
03:39PM 49.3667 -113.1167 227° Southwest 490 564 36,000  Level Edmonton Center
03:40PM 49.2500 -113.2333 213° Southwest 490 564 36,000  Level Edmonton Center
03:41PM 49.1333 -113.3667 217° Southwest 490 564 36,000 360 Level Edmonton Center
03:42PM 49.0333 -113.5000 221° Southwest 500 575 36,800 960 Climbing Edmonton Center
03:43PM 48.9333 -113.6333 221° Southwest 490 564 38,000 600 Climbing Edmonton Center
03:44PM 48.8167 -113.7667 217° Southwest 480 552 38,000  Level Edmonton Center
03:45PM 48.8006 -113.8217 246° West 487 560 38,000  Level Salt Lake Center
03:46PM 48.6969 -113.9475 219° Southwest 481 554 38,000  Level Salt Lake Center
03:47PM 48.5950 -114.0736 219° Southwest 481 554 38,000  Level Salt Lake Center
03:48PM 48.4939 -114.1978 219° Southwest 477 549 38,000  Level Salt Lake Center
03:49PM 48.3914 -114.3211 219° Southwest 476 548 38,000  Level Salt Lake Center
03:49PM 48.3708 -114.3456 218° Southwest 476 548 38,000  Level Salt Lake Center
03:50PM 48.2692 -114.4694 219° Southwest 476 548 38,000  Level Salt Lake Center
03:51PM 48.1467 -114.6175 219° Southwest 477 549 38,000 -60 Level Salt Lake Center
03:52PM 48.0392 -114.7325 216° Southwest 480 552 37,900  Descending Salt Lake Center
03:53PM 47.9286 -114.8439 214° Southwest 481 554 38,000 60 Climbing Salt Lake Center
03:54PM 47.8614 -114.9100 213° Southwest 483 556 38,000  Level Seattle Center
03:55PM 47.7481 -115.0203 213° Southwest 485 558 38,000  Level Seattle Center
03:56PM 47.6339 -115.1308 213° Southwest 490 564 38,000 -60 Level Seattle Center
03:57PM 47.5197 -115.2425 213° Southwest 492 566 37,900  Descending Seattle Center
03:58PM 47.4064 -115.3528 213° Southwest 492 566 38,000  Climbing Seattle Center
03:59PM 47.2919 -115.4639 213° Southwest 492 566 38,000  Level Seattle Center
04:00PM 47.1611 -115.5889 213° Southwest 493 567 38,000  Level Seattle Center
04:01PM 47.0456 -115.6975 213° Southwest 493 567 38,000  Level Seattle Center
04:02PM 46.9311 -115.8064 213° Southwest 492 566 38,000  Level Seattle Center
04:03PM 46.8161 -115.9150 213° Southwest 492 566 38,000  Level Seattle Center
04:04PM 46.7003 -116.0233 213° Southwest 492 566 38,000  Level Seattle Center
04:05PM 46.5850 -116.1311 213° Southwest 492 566 38,000  Level Seattle Center
04:06PM 46.4689 -116.2392 213° Southwest 495 570 38,000  Level Seattle Center
04:07PM 46.3525 -116.3469 213° Southwest 498 573 38,000  Level Seattle Center
04:08PM 46.2353 -116.4536 212° Southwest 498 573 38,000  Level Seattle Center
04:09PM 46.1186 -116.5617 213° Southwest 498 573 38,000  Level Seattle Center
04:10PM 46.0047 -116.6675 213° Southwest 494 568 38,000  Level Seattle Center
04:11PM 45.8892 -116.7686 211° Southwest 491 565 38,000  Level Seattle Center
04:12PM 45.7753 -116.8722 212° Southwest 487 560 38,000  Level Seattle Center
04:13PM 45.6542 -116.9819 212° Southwest 487 560 38,000  Level Seattle Center
04:13PM 45.6097 -117.0211 212° Southwest 487 560 38,000  Level Seattle Center
04:14PM 45.4953 -117.1236 212° Southwest 487 560 38,000  Level Seattle Center
04:15PM 45.3825 -117.2242 212° Southwest 486 559 38,000  Level Seattle Center
04:16PM 45.2447 -117.3439 211° Southwest 486 559 38,000  Level Seattle Center
04:17PM 45.1314 -117.4439 212° Southwest 485 558 38,000  Level Seattle Center
04:18PM 45.0186 -117.5425 212° Southwest 483 556 38,000  Level Seattle Center
04:19PM 44.9072 -117.6397 212° Southwest 477 549 38,000  Level Seattle Center
04:20PM 44.7961 -117.7372 212° Southwest 475 547 38,000  Level Seattle Center
04:21PM 44.6844 -117.8331 211° Southwest 475 547 38,000  Level Seattle Center
04:22PM 44.5719 -117.9300 212° Southwest 475 547 38,000  Level Seattle Center
04:23PM 44.4594 -118.0261 211° Southwest 475 547 38,000  Level Seattle Center
04:24PM 44.3453 -118.1236 211° Southwest 477 549 38,000  Level Seattle Center
04:25PM 44.2197 -118.2308 211° Southwest 481 554 38,000  Level Seattle Center
04:26PM 44.1042 -118.3261 211° Southwest 481 554 38,000  Level Seattle Center
04:27PM 44.0011 -118.4131 211° Southwest 483 556 38,000  Level Seattle Center
04:28PM 43.8647 -118.5278 211° Southwest 483 556 38,000  Level Seattle Center
04:29PM 43.7511 -118.6228 211° Southwest 481 554 38,000  Level Seattle Center
04:30PM 43.6361 -118.7167 211° Southwest 480 552 38,000  Level Seattle Center
04:31PM 43.5219 -118.8117 211° Southwest 481 554 38,000  Level Seattle Center
04:32PM 43.4067 -118.9056 211° Southwest 482 555 38,000  Level Seattle Center
04:33PM 43.2919 -119.0006 211° Southwest 482 555 38,000  Level Seattle Center
04:34PM 43.1753 -119.0942 210° Southwest 487 560 38,000  Level Seattle Center
04:35PM 43.0594 -119.1878 211° Southwest 486 559 38,000  Level Seattle Center
04:36PM 42.9436 -119.2803 210° Southwest 486 559 38,000  Level Seattle Center
04:38PM 42.8172 -119.3811 210° Southwest 484 557 38,000  Level Seattle Center
04:39PM 42.7022 -119.4733 211° Southwest 483 556 38,000  Level Seattle Center
04:40PM 42.5867 -119.5658 211° Southwest 483 556 38,000  Level Seattle Center
04:41PM 42.4694 -119.6578 210° Southwest 484 557 38,000  Level Seattle Center
04:42PM 42.3539 -119.7500 211° Southwest 484 557 38,000  Level Seattle Center
04:43PM 42.2364 -119.8411 210° Southwest 485 558 38,000  Level Seattle Center
04:44PM 42.1208 -119.9325 210° Southwest 485 558 38,000 -300 Level Seattle Center
04:45PM 42.0033 -120.0244 210° Southwest 486 559 37,500 -540 Descending Seattle Center
04:46PM 41.8869 -120.1136 210° Southwest 485 558 37,000 -300 Descending Seattle Center
04:46PM 41.7903 -120.1856 209° Southwest 481 554 37,000  Level Oakland Center
04:47PM 41.6775 -120.2731 210° Southwest 473 544 37,000  Level Oakland Center
04:52PM 41.0117 -120.7778 209° Southwest 489 563 37,000  Level FlightAware ADS-B
04:52PM 40.9228 -120.8442 209° Southwest 490 564 37,000  Level FlightAware ADS-B
04:53PM 40.8062 -120.9313 209° Southwest 491 565 37,000  Level FlightAware ADS-B
04:55PM 40.6801 -121.0240 209° Southwest 492 566 37,000  Level FlightAware ADS-B
04:56PM 40.5260 -121.1383 209° Southwest 492 566 37,000  Level FlightAware ADS-B
04:56PM 40.4451 -121.1965 209° Southwest 490 564 37,000  Level FlightAware ADS-B
04:57PM 40.3665 -121.2545 209° Southwest 488 562 37,000  Level FlightAware ADS-B
04:58PM 40.2685 -121.3267 209° Southwest 487 560 37,000  Level FlightAware ADS-B
04:59PM 40.1692 -121.3988 209° Southwest 487 560 37,000  Level FlightAware ADS-B
04:59PM 40.0880 -121.4588 209° Southwest 487 560 37,000  Level FlightAware ADS-B
05:00PM 40.0134 -121.5115 209° Southwest 487 560 37,000  Level FlightAware ADS-B
05:01PM 39.9511 -121.5570 209° Southwest 487 560 37,000  Level FlightAware ADS-B
05:01PM 39.8489 -121.6309 209° Southwest 487 560 37,000  Level FlightAware ADS-B
05:02PM 39.7683 -121.6890 208° Southwest 486 559 37,000  Level FlightAware ADS-B
05:03PM 39.6534 -121.7709 208° Southwest 485 558 37,000  Level FlightAware ADS-B
05:04PM 39.5741 -121.8271 208° Southwest 486 559 37,000  Level FlightAware ADS-B
05:04PM 39.4930 -121.8849 208° Southwest 487 560 37,000  Level FlightAware ADS-B
05:05PM 39.4107 -121.9438 208° Southwest 488 562 37,000  Level FlightAware ADS-B
05:06PM 39.3361 -121.9971 208° Southwest 488 562 37,000 -120 Level FlightAware ADS-B
05:06PM 39.2570 -122.0518 208° Southwest 491 565 36,900 -1,380 Descending FlightAware ADS-B
05:07PM 39.1340 -122.1387 208° Southwest 483 556 34,700 -2,280 Descending FlightAware ADS-B
05:08PM 39.0532 -122.1948 208° Southwest 474 545 33,100 -2,340 Descending FlightAware ADS-B
05:09PM 38.9799 -122.2468 208° Southwest 467 537 31,600 -2,280 Descending FlightAware ADS-B
05:09PM 38.9053 -122.2994 208° Southwest 459 528 30,100 -2,220 Descending FlightAware ADS-B
05:10PM 38.8311 -122.3509 208° Southwest 448 516 28,700 -2,100 Descending FlightAware ADS-B
05:11PM 38.7561 -122.4033 208° Southwest 435 501 27,300 -2,040 Descending FlightAware ADS-B
05:12PM 38.6545 -122.4730 207° Southwest 421 484 25,300 -2,400 Descending FlightAware ADS-B
05:12PM 38.5781 -122.5082 193° South 431 496 23,400 -2,820 Descending FlightAware ADS-B
05:13PM 38.4946 -122.5285 190° South 434 499 21,400 -2,580 Descending FlightAware ADS-B
05:14PM 38.4163 -122.5465 190° South 429 494 19,900 -2,220 Descending FlightAware ADS-B
05:14PM 38.3405 -122.5651 190° South 421 484 18,500 -1,980 Descending FlightAware ADS-B
05:15PM 38.2638 -122.5836 191° South 410 472 17,400 -2,100 Descending FlightAware ADS-B
05:16PM 38.1862 -122.6030 190° South 408 470 15,700 -2,400 Descending FlightAware ADS-B
05:16PM 38.1242 -122.6177 190° South 400 460 14,200 -2,280 Descending FlightAware ADS-B
05:17PM 38.0389 -122.6392 191° South 392 451 12,700 -2,160 Descending FlightAware ADS-B
05:18PM 37.9798 -122.6534 190° South 386 444 11,300 -1,320 Descending FlightAware ADS-B
05:18PM 37.9243 -122.6638 164° South 347 399 11,000 -360 Descending FlightAware ADS-B
05:19PM 37.8731 -122.6439 147° Southeast 326 375 11,000 -180 Level FlightAware ADS-B
05:21PM 37.8446 -122.6142 140° Southeast 297 342 10,700 -180 Descending FlightAware ADS-B (KNUQ)
05:21PM 37.8239 -122.5930 139° Southeast 276 318 10,700  Level FlightAware ADS-B
05:22PM 37.7772 -122.5417 140° Southeast 258 297 10,700  Level FlightAware ADS-B (KNUQ)
05:22PM 37.7700 -122.5340 140° Southeast 258 297 10,700  Level FlightAware ADS-B
05:23PM 37.7307 -122.4920 140° Southeast 259 298 10,700  Level FlightAware ADS-B
05:23PM 37.7021 -122.4620 140° Southeast 260 299 10,700  Level FlightAware ADS-B
05:24PM 37.6835 -122.4422 140° Southeast 260 299 10,700  Level FlightAware ADS-B (KNUQ)
05:24PM 37.6706 -122.4280 140° Southeast 260 299 10,700  Level FlightAware ADS-B
05:24PM 37.6405 -122.3960 140° Southeast 261 300 10,700  Level FlightAware ADS-B
05:24PM 37.6379 -122.3931 140° Southeast 261 300 10,700  Level FlightAware ADS-B (KNUQ)
05:25PM 37.6067 -122.3630 143° Southeast 261 300 10,700  Level FlightAware ADS-B
05:25PM 37.6013 -122.3590 153° Southeast 262 302 10,700  Level FlightAware ADS-B
05:25PM 37.5868 -122.3506 156° South 255 293 10,700 -240 Level FlightAware ADS-B (KNUQ)
05:25PM 37.5681 -122.3410 156° South 250 288 10,600 -1,020 Descending FlightAware ADS-B
05:26PM 37.5406 -122.3260 156° South 246 283 10,000 -1,320 Descending FlightAware ADS-B
05:26PM 37.5338 -122.3215 156° South 246 283 9,900 -1,440 Descending FlightAware ADS-B (KNUQ)
05:26PM 37.5228 -122.3160 156° South 244 281 9,600 -1,800 Descending FlightAware ADS-B
05:27PM 37.5015 -122.3040 156° South 244 281 9,000 -1,560 Descending FlightAware ADS-B
05:27PM 37.4783 -122.2910 157° South 242 278 8,500 -1,440 Descending FlightAware ADS-B
05:27PM 37.4619 -122.2820 156° South 239 275 8,100 -1,740 Descending FlightAware ADS-B
05:27PM 37.4570 -122.2790 151° Southeast 237 273 7,900 -1,680 Descending FlightAware ADS-B
05:27PM 37.4522 -122.2750 145° Southeast 236 272 7,800 -1,140 Descending FlightAware ADS-B
05:27PM 37.4478 -122.2710 141° Southeast 234 269 7,700 -1,500 Descending FlightAware ADS-B
05:28PM 37.4418 -122.2640 138° Southeast 232 267 7,500 -1,800 Descending FlightAware ADS-B
05:28PM 37.4281 -122.2480 137° Southeast 232 267 7,000 -1,500 Descending FlightAware ADS-B
05:28PM 37.4233 -122.2426 137° Southeast 230 265 6,900 -1,140 Descending FlightAware ADS-B (KNUQ)
05:28PM 37.4158 -122.2350 137° Southeast 227 261 6,700 -1,200 Descending FlightAware ADS-B
05:28PM 37.4040 -122.2200 136° Southeast 221 254 6,400 -1,200 Descending FlightAware ADS-B
05:28PM 37.4007 -122.2150 131° Southeast 219 252 6,300 -1,500 Descending FlightAware ADS-B
05:28PM 37.3990 -122.2120 125° Southeast 217 250 6,200 -1,140 Descending FlightAware ADS-B
05:29PM 37.3960 -122.2030 109° East 210 242 6,100 -1,140 Descending FlightAware ADS-B
05:29PM 37.3954 -122.2000 97° East 206 237 6,000 -1,740 Descending FlightAware ADS-B
05:29PM 37.3953 -122.1950 88° East 203 234 5,900 -1,740 Descending FlightAware ADS-B
05:29PM 37.3957 -122.1910 83° East 201 231 5,800 -1,500 Descending FlightAware ADS-B
05:29PM 37.3967 -122.1870 71° East 197 227 5,700 -900 Descending FlightAware ADS-B
05:29PM 37.3977 -122.1840 66° East 195 224 5,700 -1,020 Level FlightAware ADS-B
05:29PM 37.3990 -122.1810 62° Northeast 194 223 5,600 -1,020 Descending FlightAware ADS-B
05:29PM 37.3997 -122.1790 60° Northeast 192 221 5,500 -900 Descending FlightAware ADS-B (KNUQ)
05:29PM 37.4059 -122.1670 56° Northeast 187 215 5,400 -720 Descending FlightAware ADS-B
05:29PM 37.4073 -122.1640 54° Northeast 185 213 5,400 -780 Level FlightAware ADS-B
05:29PM 37.4097 -122.1610 48° Northeast 185 213 5,300 -780 Descending FlightAware ADS-B
05:29PM 37.4124 -122.1580 37° Northeast 184 212 5,300  Level FlightAware ADS-B
05:29PM 37.4145 -122.1560 30° Northeast 184 212 5,300  Level FlightAware ADS-B
05:29PM 37.4174 -122.1550 22° Northeast 184 212 5,300 -900 Level FlightAware ADS-B
05:30PM 37.4201 -122.1540 12° North 185 213 5,200 -900 Descending FlightAware ADS-B
05:30PM 37.4227 -122.1530 North 186 214 5,200  Level FlightAware ADS-B
05:30PM 37.4264 -122.1530 359° North 186 214 5,200 -600 Level FlightAware ADS-B
05:30PM 37.4321 -122.1540 353° North 185 213 5,100 -780 Descending FlightAware ADS-B
05:30PM 37.4329 -122.1540 354° North 185 213 5,100  Level FlightAware ADS-B (KNUQ)
05:30PM 37.4383 -122.1550 354° North 187 215 5,100 -720 Level FlightAware ADS-B
05:30PM 37.4409 -122.1550 357° North 187 215 5,000 -1,020 Descending FlightAware ADS-B
05:30PM 37.4438 -122.1550 North 187 215 5,000 -780 Level FlightAware ADS-B
05:30PM 37.4482 -122.1550 North 186 214 4,900 -1,500 Descending FlightAware ADS-B
05:30PM 37.4508 -122.1540 10° North 187 215 4,800 -1,500 Descending FlightAware ADS-B
05:30PM 37.4500 -122.1544 North 187 215 4,800  Level FlightAware ADS-B (KNUQ)
05:30PM 37.4540 -122.1530 12° North 186 214 4,800 -840 Level FlightAware ADS-B
05:30PM 37.4640 -122.1500 15° North 188 216 4,600 -1,080 Descending FlightAware ADS-B
05:30PM 37.4678 -122.1487 16° North 187 215 4,500 -900 Descending FlightAware ADS-B (KNUQ)
05:31PM 37.4698 -122.1480 16° North 186 214 4,500 -720 Level FlightAware ADS-B
05:31PM 37.4821 -122.1430 16° North 184 212 4,300 -900 Descending FlightAware ADS-B
05:31PM 37.4862 -122.1420 14° North 183 211 4,200 -1,380 Descending FlightAware ADS-B
05:31PM 37.4895 -122.1410 North 183 211 4,100 -780 Descending FlightAware ADS-B
05:31PM 37.4927 -122.1410 North 184 212 4,100 -900 Level FlightAware ADS-B
05:31PM 37.4957 -122.1420 351° North 184 212 4,000 -1,740 Descending FlightAware ADS-B
05:31PM 37.4991 -122.1430 343° North 185 213 3,900 -780 Descending FlightAware ADS-B
05:31PM 37.5022 -122.1440 338° Northwest 185 213 3,900 -1,200 Level FlightAware ADS-B
05:31PM 37.5141 -122.1520 334° Northwest 185 213 3,500 -1,380 Descending FlightAware ADS-B
05:31PM 37.5149 -122.1521 334° Northwest 185 213 3,500 -1,380 Level FlightAware ADS-B (KNUQ)
05:32PM 37.5215 -122.1560 333° Northwest 186 214 3,300 -1,500 Descending FlightAware ADS-B
05:32PM 37.5251 -122.1590 327° Northwest 185 213 3,200 -1,380 Descending FlightAware ADS-B
05:32PM 37.5278 -122.1610 317° Northwest 185 213 3,100 -1,500 Descending FlightAware ADS-B
05:32PM 37.5299 -122.1650 309° West 186 214 3,000 -1,740 Descending FlightAware ADS-B
05:32PM 37.5314 -122.1670 305° West 185 213 2,900 -1,740 Descending FlightAware ADS-B
05:32PM 37.5333 -122.1710 301° West 185 213 2,800 -1,500 Descending FlightAware ADS-B
05:32PM 37.5349 -122.1750 298° West 185 213 2,700 -840 Descending FlightAware ADS-B
05:32PM 37.5390 -122.1850 296° West 184 212 2,600 -900 Descending FlightAware ADS-B
05:32PM 37.5424 -122.1940 298° West 184 212 2,400 -1,140 Descending FlightAware ADS-B
05:32PM 37.5428 -122.1949 299° West 184 212 2,400 -840 Level FlightAware ADS-B (KNUQ)
05:33PM 37.5487 -122.2080 298° West 187 215 2,200 -900 Descending FlightAware ADS-B
05:33PM 37.5549 -122.2230 298° West 188 216 2,000 -1,080 Descending FlightAware ADS-B
05:33PM 37.5606 -122.2360 298° West 186 214 1,700 -1,020 Descending FlightAware ADS-B
05:33PM 37.5672 -122.2520 298° West 177 204 1,500 -660 Descending FlightAware ADS-B
05:33PM 37.5639 -122.2447 298° West 179 206 1,500 -840 Level FlightAware ADS-B (KNUQ)
05:34PM 37.5731 -122.2670 298° West 174 200 1,300 -1,080 Descending FlightAware ADS-B
05:34PM 37.5787 -122.2800 298° West 173 199 1,000 -1,020 Descending FlightAware ADS-B
05:34PM 37.5841 -122.2930 298° West 160 184 800 -660 Descending FlightAware ADS-B
05:34PM 37.5913 -122.3100 298° West 146 168 600 -660 Descending FlightAware ADS-B
05:35PM 37.5964 -122.3220 298° West 144 166 400 -780 Descending FlightAware ADS-B
05:35PM 37.6011 -122.3330 298° West 145 167 200 -840 Descending FlightAware ADS-B